sensor_id;sensor_type;location;lat;lon;timestamp;P1;durP1;ratioP1;P2;durP2;ratioP2
4754;SDS011;2391;47.212;7.542;2022-10-19T00:01:09;7.47;;;3.07;;
4754;SDS011;2391;47.212;7.542;2022-10-19T00:03:37;6.63;;;3.23;;
4754;SDS011;2391;47.212;7.542;2022-10-19T00:06:10;13.53;;;3.30;;
4754;SDS011;2391;47.212;7.542;2022-10-19T00:08:38;6.00;;;3.00;;
4754;SDS011;2391;47.212;7.542;2022-10-19T00:11:04;6.47;;;3.13;;
4754;SDS011;2391;47.212;7.542;2022-10-19T00:13:30;5.30;;;3.10;;
4754;SDS011;2391;47.212;7.542;2022-10-19T00:15:56;12.87;;;3.33;;
4754;SDS011;2391;47.212;7.542;2022-10-19T00:18:22;10.53;;;3.47;;
4754;SDS011;2391;47.212;7.542;2022-10-19T00:20:48;5.43;;;2.93;;
4754;SDS011;2391;47.212;7.542;2022-10-19T00:23:14;11.50;;;3.00;;
4754;SDS011;2391;47.212;7.542;2022-10-19T00:25:40;5.63;;;3.00;;
4754;SDS011;2391;47.212;7.542;2022-10-19T00:28:06;5.43;;;2.70;;
4754;SDS011;2391;47.212;7.542;2022-10-19T00:30:35;5.83;;;3.50;;
4754;SDS011;2391;47.212;7.542;2022-10-19T00:33:02;7.00;;;3.20;;
4754;SDS011;2391;47.212;7.542;2022-10-19T00:35:29;2.80;;;2.60;;
4754;SDS011;2391;47.212;7.542;2022-10-19T00:37:55;7.63;;;3.20;;
4754;SDS011;2391;47.212;7.542;2022-10-19T00:40:21;5.63;;;3.43;;
4754;SDS011;2391;47.212;7.542;2022-10-19T00:42:52;7.63;;;2.80;;
4754;SDS011;2391;47.212;7.542;2022-10-19T00:45:16;9.30;;;3.23;;
4754;SDS011;2391;47.212;7.542;2022-10-19T00:47:44;12.60;;;3.03;;
4754;SDS011;2391;47.212;7.542;2022-10-19T00:50:10;21.13;;;3.40;;
4754;SDS011;2391;47.212;7.542;2022-10-19T00:52:39;9.23;;;3.13;;
4754;SDS011;2391;47.212;7.542;2022-10-19T00:55:05;4.27;;;3.23;;
4754;SDS011;2391;47.212;7.542;2022-10-19T00:57:33;6.90;;;3.13;;
4754;SDS011;2391;47.212;7.542;2022-10-19T01:00:00;11.97;;;3.10;;
4754;SDS011;2391;47.212;7.542;2022-10-19T01:02:29;6.60;;;2.70;;
4754;SDS011;2391;47.212;7.542;2022-10-19T01:04:55;9.00;;;2.77;;
4754;SDS011;2391;47.212;7.542;2022-10-19T01:07:22;3.93;;;3.13;;
4754;SDS011;2391;47.212;7.542;2022-10-19T01:09:49;8.50;;;2.70;;
4754;SDS011;2391;47.212;7.542;2022-10-19T01:15:26;11.00;;;3.17;;
4754;SDS011;2391;47.212;7.542;2022-10-19T01:29:15;7.30;;;2.73;;
4754;SDS011;2391;47.212;7.542;2022-10-19T01:32:04;8.80;;;3.30;;
4754;SDS011;2391;47.212;7.542;2022-10-19T01:34:45;4.43;;;2.90;;
4754;SDS011;2391;47.212;7.542;2022-10-19T01:40:14;7.90;;;2.77;;
4754;SDS011;2391;47.212;7.542;2022-10-19T01:45:27;5.13;;;2.90;;
4754;SDS011;2391;47.212;7.542;2022-10-19T01:48:00;8.17;;;3.47;;
4754;SDS011;2391;47.212;7.542;2022-10-19T01:50:39;5.20;;;3.20;;
4754;SDS011;2391;47.212;7.542;2022-10-19T01:53:00;4.03;;;2.90;;
4754;SDS011;2391;47.212;7.542;2022-10-19T01:55:28;3.60;;;3.20;;
4754;SDS011;2391;47.212;7.542;2022-10-19T01:58:00;8.90;;;4.70;;
4754;SDS011;2391;47.212;7.542;2022-10-19T02:00:30;9.50;;;2.87;;
4754;SDS011;2391;47.212;7.542;2022-10-19T02:02:57;7.03;;;3.30;;
4754;SDS011;2391;47.212;7.542;2022-10-19T02:05:30;12.80;;;3.73;;
4754;SDS011;2391;47.212;7.542;2022-10-19T02:08:02;8.67;;;3.87;;
4754;SDS011;2391;47.212;7.542;2022-10-19T02:10:30;8.90;;;3.87;;
4754;SDS011;2391;47.212;7.542;2022-10-19T02:12:59;9.73;;;3.37;;
4754;SDS011;2391;47.212;7.542;2022-10-19T02:15:27;19.33;;;4.17;;
4754;SDS011;2391;47.212;7.542;2022-10-19T02:17:56;9.17;;;4.17;;
4754;SDS011;2391;47.212;7.542;2022-10-19T02:20:25;10.23;;;3.77;;
4754;SDS011;2391;47.212;7.542;2022-10-19T02:22:52;16.30;;;4.13;;
4754;SDS011;2391;47.212;7.542;2022-10-19T02:25:19;7.07;;;3.63;;
4754;SDS011;2391;47.212;7.542;2022-10-19T02:27:46;19.43;;;5.07;;
4754;SDS011;2391;47.212;7.542;2022-10-19T02:30:13;10.63;;;4.47;;
4754;SDS011;2391;47.212;7.542;2022-10-19T02:32:41;10.50;;;5.27;;
4754;SDS011;2391;47.212;7.542;2022-10-19T02:35:07;19.17;;;6.20;;
4754;SDS011;2391;47.212;7.542;2022-10-19T02:37:35;11.40;;;5.70;;
4754;SDS011;2391;47.212;7.542;2022-10-19T02:40:01;19.17;;;7.70;;
4754;SDS011;2391;47.212;7.542;2022-10-19T02:42:28;20.27;;;8.93;;
4754;SDS011;2391;47.212;7.542;2022-10-19T02:45:06;16.47;;;7.83;;
4754;SDS011;2391;47.212;7.542;2022-10-19T02:47:41;15.67;;;8.37;;
4754;SDS011;2391;47.212;7.542;2022-10-19T02:50:05;10.90;;;7.40;;
4754;SDS011;2391;47.212;7.542;2022-10-19T02:52:33;12.20;;;7.20;;
4754;SDS011;2391;47.212;7.542;2022-10-19T02:55:04;15.27;;;7.07;;
4754;SDS011;2391;47.212;7.542;2022-10-19T02:57:31;10.57;;;6.40;;
4754;SDS011;2391;47.212;7.542;2022-10-19T02:59:57;7.43;;;6.00;;
4754;SDS011;2391;47.212;7.542;2022-10-19T03:02:23;11.30;;;5.40;;
4754;SDS011;2391;47.212;7.542;2022-10-19T03:04:50;15.13;;;6.43;;
4754;SDS011;2391;47.212;7.542;2022-10-19T03:07:17;13.07;;;6.30;;
4754;SDS011;2391;47.212;7.542;2022-10-19T03:09:44;6.43;;;5.37;;
4754;SDS011;2391;47.212;7.542;2022-10-19T03:12:10;9.63;;;5.90;;
4754;SDS011;2391;47.212;7.542;2022-10-19T03:14:37;6.83;;;5.57;;
4754;SDS011;2391;47.212;7.542;2022-10-19T03:17:04;6.00;;;5.40;;
4754;SDS011;2391;47.212;7.542;2022-10-19T03:19:30;7.27;;;5.87;;
4754;SDS011;2391;47.212;7.542;2022-10-19T03:21:56;8.10;;;5.30;;
4754;SDS011;2391;47.212;7.542;2022-10-19T03:24:22;7.03;;;5.43;;
4754;SDS011;2391;47.212;7.542;2022-10-19T03:26:48;9.43;;;6.43;;
4754;SDS011;2391;47.212;7.542;2022-10-19T03:29:14;11.83;;;6.70;;
4754;SDS011;2391;47.212;7.542;2022-10-19T03:31:40;12.97;;;6.60;;
4754;SDS011;2391;47.212;7.542;2022-10-19T03:34:06;7.07;;;6.03;;
4754;SDS011;2391;47.212;7.542;2022-10-19T03:36:36;11.37;;;6.00;;
4754;SDS011;2391;47.212;7.542;2022-10-19T03:39:05;6.80;;;6.17;;
4754;SDS011;2391;47.212;7.542;2022-10-19T03:41:34;8.40;;;6.47;;
4754;SDS011;2391;47.212;7.542;2022-10-19T03:44:01;8.13;;;7.00;;
4754;SDS011;2391;47.212;7.542;2022-10-19T03:46:27;13.10;;;6.60;;
4754;SDS011;2391;47.212;7.542;2022-10-19T03:48:53;17.53;;;6.97;;
4754;SDS011;2391;47.212;7.542;2022-10-19T03:51:20;7.80;;;6.90;;
4754;SDS011;2391;47.212;7.542;2022-10-19T03:53:59;14.73;;;8.33;;
4754;SDS011;2391;47.212;7.542;2022-10-19T03:56:24;9.13;;;7.47;;
4754;SDS011;2391;47.212;7.542;2022-10-19T03:58:52;11.00;;;7.93;;
4754;SDS011;2391;47.212;7.542;2022-10-19T04:01:20;9.97;;;6.77;;
4754;SDS011;2391;47.212;7.542;2022-10-19T04:03:55;11.83;;;7.67;;
4754;SDS011;2391;47.212;7.542;2022-10-19T04:06:23;11.93;;;7.60;;
4754;SDS011;2391;47.212;7.542;2022-10-19T04:08:51;12.83;;;7.67;;
4754;SDS011;2391;47.212;7.542;2022-10-19T04:11:19;17.33;;;8.90;;
4754;SDS011;2391;47.212;7.542;2022-10-19T04:13:48;11.37;;;6.57;;
4754;SDS011;2391;47.212;7.542;2022-10-19T04:16:18;15.93;;;8.53;;
4754;SDS011;2391;47.212;7.542;2022-10-19T04:18:45;13.73;;;8.20;;
4754;SDS011;2391;47.212;7.542;2022-10-19T04:23:56;8.43;;;7.40;;
4754;SDS011;2391;47.212;7.542;2022-10-19T04:26:23;10.20;;;7.10;;
4754;SDS011;2391;47.212;7.542;2022-10-19T04:28:49;25.67;;;7.80;;
4754;SDS011;2391;47.212;7.542;2022-10-19T04:31:15;12.63;;;7.40;;
4754;SDS011;2391;47.212;7.542;2022-10-19T04:33:41;12.27;;;8.00;;
4754;SDS011;2391;47.212;7.542;2022-10-19T04:36:10;12.27;;;8.73;;
4754;SDS011;2391;47.212;7.542;2022-10-19T04:38:36;12.30;;;8.00;;
4754;SDS011;2391;47.212;7.542;2022-10-19T04:41:04;8.70;;;6.90;;
4754;SDS011;2391;47.212;7.542;2022-10-19T04:43:32;21.10;;;7.60;;
4754;SDS011;2391;47.212;7.542;2022-10-19T04:46:01;15.43;;;7.40;;
4754;SDS011;2391;47.212;7.542;2022-10-19T04:48:29;10.37;;;7.50;;
4754;SDS011;2391;47.212;7.542;2022-10-19T04:50:55;9.87;;;7.00;;
4754;SDS011;2391;47.212;7.542;2022-10-19T04:53:21;11.57;;;8.00;;
4754;SDS011;2391;47.212;7.542;2022-10-19T04:55:49;11.60;;;8.30;;
4754;SDS011;2391;47.212;7.542;2022-10-19T04:58:15;20.20;;;7.80;;
4754;SDS011;2391;47.212;7.542;2022-10-19T05:00:41;12.77;;;7.70;;
4754;SDS011;2391;47.212;7.542;2022-10-19T05:03:06;13.23;;;7.60;;
4754;SDS011;2391;47.212;7.542;2022-10-19T05:05:32;12.50;;;6.87;;
4754;SDS011;2391;47.212;7.542;2022-10-19T05:07:58;9.90;;;7.13;;
4754;SDS011;2391;47.212;7.542;2022-10-19T05:10:25;10.47;;;6.97;;
4754;SDS011;2391;47.212;7.542;2022-10-19T05:12:51;12.87;;;7.63;;
4754;SDS011;2391;47.212;7.542;2022-10-19T05:15:17;10.80;;;7.33;;
4754;SDS011;2391;47.212;7.542;2022-10-19T05:17:43;12.10;;;7.07;;
4754;SDS011;2391;47.212;7.542;2022-10-19T05:20:09;7.57;;;6.10;;
4754;SDS011;2391;47.212;7.542;2022-10-19T05:22:36;8.73;;;6.70;;
4754;SDS011;2391;47.212;7.542;2022-10-19T05:25:03;10.00;;;6.37;;
4754;SDS011;2391;47.212;7.542;2022-10-19T05:27:29;8.70;;;7.43;;
4754;SDS011;2391;47.212;7.542;2022-10-19T05:29:55;9.03;;;6.43;;
4754;SDS011;2391;47.212;7.542;2022-10-19T05:32:21;10.33;;;7.27;;
4754;SDS011;2391;47.212;7.542;2022-10-19T05:34:47;18.43;;;6.60;;
4754;SDS011;2391;47.212;7.542;2022-10-19T05:37:14;11.50;;;7.07;;
4754;SDS011;2391;47.212;7.542;2022-10-19T05:39:41;11.17;;;7.60;;
4754;SDS011;2391;47.212;7.542;2022-10-19T05:42:07;14.50;;;7.40;;
4754;SDS011;2391;47.212;7.542;2022-10-19T05:44:33;8.80;;;7.23;;
4754;SDS011;2391;47.212;7.542;2022-10-19T05:47:00;8.30;;;7.00;;
4754;SDS011;2391;47.212;7.542;2022-10-19T05:49:26;14.50;;;7.17;;
4754;SDS011;2391;47.212;7.542;2022-10-19T05:51:52;12.00;;;7.80;;
4754;SDS011;2391;47.212;7.542;2022-10-19T05:54:19;11.20;;;7.80;;
4754;SDS011;2391;47.212;7.542;2022-10-19T05:56:45;11.93;;;7.50;;
4754;SDS011;2391;47.212;7.542;2022-10-19T05:59:15;17.80;;;7.53;;
4754;SDS011;2391;47.212;7.542;2022-10-19T06:01:44;9.40;;;7.13;;
4754;SDS011;2391;47.212;7.542;2022-10-19T06:04:11;17.57;;;7.47;;
4754;SDS011;2391;47.212;7.542;2022-10-19T06:06:38;15.23;;;7.77;;
4754;SDS011;2391;47.212;7.542;2022-10-19T06:09:04;8.00;;;6.30;;
4754;SDS011;2391;47.212;7.542;2022-10-19T06:11:31;8.00;;;6.00;;
4754;SDS011;2391;47.212;7.542;2022-10-19T06:13:59;7.30;;;6.60;;
4754;SDS011;2391;47.212;7.542;2022-10-19T06:16:27;11.80;;;6.37;;
4754;SDS011;2391;47.212;7.542;2022-10-19T06:18:55;7.30;;;5.77;;
4754;SDS011;2391;47.212;7.542;2022-10-19T06:21:23;26.23;;;6.90;;
4754;SDS011;2391;47.212;7.542;2022-10-19T06:23:51;10.23;;;7.13;;
4754;SDS011;2391;47.212;7.542;2022-10-19T06:26:18;20.10;;;6.70;;
4754;SDS011;2391;47.212;7.542;2022-10-19T06:28:44;10.67;;;7.33;;
4754;SDS011;2391;47.212;7.542;2022-10-19T06:31:11;10.43;;;7.13;;
4754;SDS011;2391;47.212;7.542;2022-10-19T06:33:39;32.30;;;8.67;;
4754;SDS011;2391;47.212;7.542;2022-10-19T06:36:13;14.80;;;8.00;;
4754;SDS011;2391;47.212;7.542;2022-10-19T06:38:41;26.47;;;9.00;;
4754;SDS011;2391;47.212;7.542;2022-10-19T06:41:08;15.80;;;9.33;;
4754;SDS011;2391;47.212;7.542;2022-10-19T06:43:34;12.30;;;8.00;;
4754;SDS011;2391;47.212;7.542;2022-10-19T06:46:04;7.57;;;6.23;;
4754;SDS011;2391;47.212;7.542;2022-10-19T06:48:32;8.20;;;6.17;;
4754;SDS011;2391;47.212;7.542;2022-10-19T06:50:59;11.00;;;6.13;;
4754;SDS011;2391;47.212;7.542;2022-10-19T06:53:26;8.80;;;6.70;;
4754;SDS011;2391;47.212;7.542;2022-10-19T06:56:02;11.33;;;7.00;;
4754;SDS011;2391;47.212;7.542;2022-10-19T06:58:28;14.60;;;7.53;;
4754;SDS011;2391;47.212;7.542;2022-10-19T07:00:56;10.63;;;6.97;;
4754;SDS011;2391;47.212;7.542;2022-10-19T07:03:28;13.03;;;7.07;;
4754;SDS011;2391;47.212;7.542;2022-10-19T07:05:52;11.23;;;7.30;;
4754;SDS011;2391;47.212;7.542;2022-10-19T07:08:21;8.23;;;6.77;;
4754;SDS011;2391;47.212;7.542;2022-10-19T07:10:55;9.03;;;6.13;;
4754;SDS011;2391;47.212;7.542;2022-10-19T07:13:22;16.57;;;7.20;;
4754;SDS011;2391;47.212;7.542;2022-10-19T07:15:48;9.17;;;6.40;;
4754;SDS011;2391;47.212;7.542;2022-10-19T07:18:14;15.07;;;7.67;;
4754;SDS011;2391;47.212;7.542;2022-10-19T07:20:40;12.90;;;7.63;;
4754;SDS011;2391;47.212;7.542;2022-10-19T07:23:06;23.60;;;8.23;;
4754;SDS011;2391;47.212;7.542;2022-10-19T07:25:32;16.63;;;7.50;;
4754;SDS011;2391;47.212;7.542;2022-10-19T07:27:58;12.60;;;9.00;;
4754;SDS011;2391;47.212;7.542;2022-10-19T07:30:24;13.77;;;9.43;;
4754;SDS011;2391;47.212;7.542;2022-10-19T07:32:50;12.80;;;9.00;;
4754;SDS011;2391;47.212;7.542;2022-10-19T07:35:16;22.03;;;10.60;;
4754;SDS011;2391;47.212;7.542;2022-10-19T07:37:42;15.43;;;9.50;;
4754;SDS011;2391;47.212;7.542;2022-10-19T07:40:08;16.27;;;11.53;;
4754;SDS011;2391;47.212;7.542;2022-10-19T07:42:35;24.93;;;12.60;;
4754;SDS011;2391;47.212;7.542;2022-10-19T07:45:02;24.77;;;12.87;;
4754;SDS011;2391;47.212;7.542;2022-10-19T07:47:28;21.30;;;12.27;;
4754;SDS011;2391;47.212;7.542;2022-10-19T07:49:54;26.73;;;13.57;;
4754;SDS011;2391;47.212;7.542;2022-10-19T07:52:20;23.87;;;12.60;;
4754;SDS011;2391;47.212;7.542;2022-10-19T07:54:46;19.40;;;11.53;;
4754;SDS011;2391;47.212;7.542;2022-10-19T07:57:14;19.13;;;12.43;;
4754;SDS011;2391;47.212;7.542;2022-10-19T07:59:40;23.80;;;11.23;;
4754;SDS011;2391;47.212;7.542;2022-10-19T08:02:13;23.20;;;11.10;;
4754;SDS011;2391;47.212;7.542;2022-10-19T08:04:41;13.40;;;10.30;;
4754;SDS011;2391;47.212;7.542;2022-10-19T08:07:07;18.73;;;9.23;;
4754;SDS011;2391;47.212;7.542;2022-10-19T08:09:34;16.60;;;10.30;;
4754;SDS011;2391;47.212;7.542;2022-10-19T08:12:00;17.60;;;10.70;;
4754;SDS011;2391;47.212;7.542;2022-10-19T08:14:26;20.90;;;11.40;;
4754;SDS011;2391;47.212;7.542;2022-10-19T08:16:52;12.33;;;9.80;;
4754;SDS011;2391;47.212;7.542;2022-10-19T08:19:18;16.53;;;10.60;;
4754;SDS011;2391;47.212;7.542;2022-10-19T08:21:45;16.00;;;10.33;;
4754;SDS011;2391;47.212;7.542;2022-10-19T08:24:12;21.40;;;11.80;;
4754;SDS011;2391;47.212;7.542;2022-10-19T08:26:39;19.30;;;11.53;;
4754;SDS011;2391;47.212;7.542;2022-10-19T08:29:06;20.17;;;11.50;;
4754;SDS011;2391;47.212;7.542;2022-10-19T08:31:37;21.67;;;11.70;;
4754;SDS011;2391;47.212;7.542;2022-10-19T08:34:04;16.50;;;12.07;;
4754;SDS011;2391;47.212;7.542;2022-10-19T08:36:30;21.30;;;11.80;;
4754;SDS011;2391;47.212;7.542;2022-10-19T08:38:57;20.60;;;12.33;;
4754;SDS011;2391;47.212;7.542;2022-10-19T08:44:36;21.13;;;12.90;;
4754;SDS011;2391;47.212;7.542;2022-10-19T08:49:55;19.43;;;12.90;;
4754;SDS011;2391;47.212;7.542;2022-10-19T08:52:24;28.23;;;12.67;;
4754;SDS011;2391;47.212;7.542;2022-10-19T08:54:54;17.40;;;12.80;;
4754;SDS011;2391;47.212;7.542;2022-10-19T08:57:35;23.43;;;12.73;;
4754;SDS011;2391;47.212;7.542;2022-10-19T09:05:49;23.13;;;12.30;;
4754;SDS011;2391;47.212;7.542;2022-10-19T09:08:09;20.30;;;11.80;;
4754;SDS011;2391;47.212;7.542;2022-10-19T09:10:38;24.13;;;13.60;;
4754;SDS011;2391;47.212;7.542;2022-10-19T09:13:15;19.83;;;13.13;;
4754;SDS011;2391;47.212;7.542;2022-10-19T09:15:45;18.43;;;12.23;;
4754;SDS011;2391;47.212;7.542;2022-10-19T09:18:13;22.37;;;12.60;;
4754;SDS011;2391;47.212;7.542;2022-10-19T09:20:49;22.83;;;15.10;;
4754;SDS011;2391;47.212;7.542;2022-10-19T09:25:56;30.63;;;14.77;;
4754;SDS011;2391;47.212;7.542;2022-10-19T09:28:35;29.13;;;15.03;;
4754;SDS011;2391;47.212;7.542;2022-10-19T09:31:04;26.70;;;15.00;;
4754;SDS011;2391;47.212;7.542;2022-10-19T09:33:34;21.20;;;14.13;;
4754;SDS011;2391;47.212;7.542;2022-10-19T09:36:03;32.13;;;16.13;;
4754;SDS011;2391;47.212;7.542;2022-10-19T09:38:31;25.90;;;16.30;;
4754;SDS011;2391;47.212;7.542;2022-10-19T09:40:57;30.37;;;17.50;;
4754;SDS011;2391;47.212;7.542;2022-10-19T09:43:25;35.60;;;18.20;;
4754;SDS011;2391;47.212;7.542;2022-10-19T09:48:37;38.37;;;18.67;;
4754;SDS011;2391;47.212;7.542;2022-10-19T09:51:11;37.70;;;18.13;;
4754;SDS011;2391;47.212;7.542;2022-10-19T09:53:42;32.57;;;18.13;;
4754;SDS011;2391;47.212;7.542;2022-10-19T09:56:16;30.70;;;17.70;;
4754;SDS011;2391;47.212;7.542;2022-10-19T09:58:46;30.60;;;16.40;;
4754;SDS011;2391;47.212;7.542;2022-10-19T10:01:34;26.83;;;17.23;;
4754;SDS011;2391;47.212;7.542;2022-10-19T10:04:15;32.67;;;17.27;;
4754;SDS011;2391;47.212;7.542;2022-10-19T10:06:46;27.90;;;17.60;;
4754;SDS011;2391;47.212;7.542;2022-10-19T10:09:18;33.67;;;17.60;;
4754;SDS011;2391;47.212;7.542;2022-10-19T10:11:41;25.27;;;17.67;;
4754;SDS011;2391;47.212;7.542;2022-10-19T10:14:21;30.80;;;15.50;;
4754;SDS011;2391;47.212;7.542;2022-10-19T10:16:55;37.50;;;17.63;;
4754;SDS011;2391;47.212;7.542;2022-10-19T10:19:25;28.27;;;17.13;;
4754;SDS011;2391;47.212;7.542;2022-10-19T10:21:54;30.70;;;17.10;;
4754;SDS011;2391;47.212;7.542;2022-10-19T10:24:29;30.60;;;17.43;;
4754;SDS011;2391;47.212;7.542;2022-10-19T10:27:01;26.67;;;16.13;;
4754;SDS011;2391;47.212;7.542;2022-10-19T10:39:55;19.90;;;14.90;;
4754;SDS011;2391;47.212;7.542;2022-10-19T10:42:31;21.93;;;14.80;;
4754;SDS011;2391;47.212;7.542;2022-10-19T10:45:03;26.00;;;15.20;;
4754;SDS011;2391;47.212;7.542;2022-10-19T10:47:31;28.60;;;15.80;;
4754;SDS011;2391;47.212;7.542;2022-10-19T10:49:59;20.83;;;14.67;;
4754;SDS011;2391;47.212;7.542;2022-10-19T10:52:28;35.43;;;15.80;;
4754;SDS011;2391;47.212;7.542;2022-10-19T10:57:29;22.17;;;14.10;;
4754;SDS011;2391;47.212;7.542;2022-10-19T11:00:09;23.40;;;14.30;;
4754;SDS011;2391;47.212;7.542;2022-10-19T11:10:56;19.60;;;14.37;;
4754;SDS011;2391;47.212;7.542;2022-10-19T11:13:28;21.43;;;13.73;;
4754;SDS011;2391;47.212;7.542;2022-10-19T11:16:21;25.77;;;14.40;;
4754;SDS011;2391;47.212;7.542;2022-10-19T11:19:00;26.57;;;14.60;;
4754;SDS011;2391;47.212;7.542;2022-10-19T11:21:32;18.23;;;13.90;;
4754;SDS011;2391;47.212;7.542;2022-10-19T11:31:55;21.87;;;13.97;;
4754;SDS011;2391;47.212;7.542;2022-10-19T11:42:27;19.93;;;12.23;;
4754;SDS011;2391;47.212;7.542;2022-10-19T11:45:20;19.13;;;11.83;;
4754;SDS011;2391;47.212;7.542;2022-10-19T11:50:46;25.63;;;12.07;;
4754;SDS011;2391;47.212;7.542;2022-10-19T11:53:11;18.00;;;11.13;;
4754;SDS011;2391;47.212;7.542;2022-10-19T12:07:10;15.97;;;11.33;;
4754;SDS011;2391;47.212;7.542;2022-10-19T12:12:34;16.57;;;11.53;;
4754;SDS011;2391;47.212;7.542;2022-10-19T12:15:04;17.60;;;12.53;;
4754;SDS011;2391;47.212;7.542;2022-10-19T12:17:38;19.90;;;13.93;;
4754;SDS011;2391;47.212;7.542;2022-10-19T12:20:12;21.93;;;12.17;;
4754;SDS011;2391;47.212;7.542;2022-10-19T12:22:52;18.97;;;11.80;;
4754;SDS011;2391;47.212;7.542;2022-10-19T12:25:18;17.67;;;11.87;;
4754;SDS011;2391;47.212;7.542;2022-10-19T12:27:46;23.20;;;12.10;;
4754;SDS011;2391;47.212;7.542;2022-10-19T12:30:16;21.60;;;12.27;;
4754;SDS011;2391;47.212;7.542;2022-10-19T12:35:38;18.87;;;12.83;;
4754;SDS011;2391;47.212;7.542;2022-10-19T12:38:32;16.47;;;10.73;;
4754;SDS011;2391;47.212;7.542;2022-10-19T12:41:12;15.80;;;10.77;;
4754;SDS011;2391;47.212;7.542;2022-10-19T12:43:44;16.17;;;11.13;;
4754;SDS011;2391;47.212;7.542;2022-10-19T12:51:57;18.13;;;11.30;;
4754;SDS011;2391;47.212;7.542;2022-10-19T12:54:31;16.20;;;11.20;;
4754;SDS011;2391;47.212;7.542;2022-10-19T12:56:55;16.73;;;11.60;;
4754;SDS011;2391;47.212;7.542;2022-10-19T12:59:33;19.70;;;11.80;;
4754;SDS011;2391;47.212;7.542;2022-10-19T13:02:03;16.70;;;11.27;;
4754;SDS011;2391;47.212;7.542;2022-10-19T13:04:31;20.07;;;10.10;;
4754;SDS011;2391;47.212;7.542;2022-10-19T13:07:00;16.40;;;10.80;;
4754;SDS011;2391;47.212;7.542;2022-10-19T13:09:35;33.47;;;11.77;;
4754;SDS011;2391;47.212;7.542;2022-10-19T13:14:57;23.40;;;15.23;;
4754;SDS011;2391;47.212;7.542;2022-10-19T13:22:43;15.23;;;11.10;;
4754;SDS011;2391;47.212;7.542;2022-10-19T13:25:27;18.17;;;11.30;;
4754;SDS011;2391;47.212;7.542;2022-10-19T13:27:57;15.60;;;11.47;;
4754;SDS011;2391;47.212;7.542;2022-10-19T13:38:32;21.27;;;11.50;;
4754;SDS011;2391;47.212;7.542;2022-10-19T14:05:43;14.20;;;10.33;;
4754;SDS011;2391;47.212;7.542;2022-10-19T14:13:45;13.87;;;10.23;;
4754;SDS011;2391;47.212;7.542;2022-10-19T14:16:17;18.60;;;9.93;;
4754;SDS011;2391;47.212;7.542;2022-10-19T14:18:51;14.23;;;9.83;;
4754;SDS011;2391;47.212;7.542;2022-10-19T14:21:14;18.43;;;10.30;;
4754;SDS011;2391;47.212;7.542;2022-10-19T14:23:44;19.60;;;10.53;;
4754;SDS011;2391;47.212;7.542;2022-10-19T14:26:19;13.33;;;9.90;;
4754;SDS011;2391;47.212;7.542;2022-10-19T14:28:49;16.20;;;9.73;;
4754;SDS011;2391;47.212;7.542;2022-10-19T14:31:20;16.90;;;9.47;;
4754;SDS011;2391;47.212;7.542;2022-10-19T14:33:59;12.27;;;9.20;;
4754;SDS011;2391;47.212;7.542;2022-10-19T14:36:21;19.50;;;10.20;;
4754;SDS011;2391;47.212;7.542;2022-10-19T14:38:52;16.53;;;9.60;;
4754;SDS011;2391;47.212;7.542;2022-10-19T14:43:55;19.30;;;9.80;;
4754;SDS011;2391;47.212;7.542;2022-10-19T14:46:28;14.97;;;10.00;;
4754;SDS011;2391;47.212;7.542;2022-10-19T14:49:01;13.70;;;9.57;;
4754;SDS011;2391;47.212;7.542;2022-10-19T14:54:23;18.47;;;10.07;;
4754;SDS011;2391;47.212;7.542;2022-10-19T14:56:55;15.30;;;9.70;;
4754;SDS011;2391;47.212;7.542;2022-10-19T14:59:30;13.30;;;8.53;;
4754;SDS011;2391;47.212;7.542;2022-10-19T15:02:10;19.50;;;9.80;;
4754;SDS011;2391;47.212;7.542;2022-10-19T15:04:49;11.77;;;8.40;;
4754;SDS011;2391;47.212;7.542;2022-10-19T15:07:18;12.23;;;9.57;;
4754;SDS011;2391;47.212;7.542;2022-10-19T15:09:48;19.83;;;8.60;;
4754;SDS011;2391;47.212;7.542;2022-10-19T15:12:21;17.80;;;9.67;;
4754;SDS011;2391;47.212;7.542;2022-10-19T15:14:52;16.67;;;9.90;;
4754;SDS011;2391;47.212;7.542;2022-10-19T15:19:51;17.90;;;9.37;;
4754;SDS011;2391;47.212;7.542;2022-10-19T15:22:21;14.30;;;9.80;;
4754;SDS011;2391;47.212;7.542;2022-10-19T15:30:18;13.77;;;8.90;;
4754;SDS011;2391;47.212;7.542;2022-10-19T15:32:47;14.37;;;9.43;;
4754;SDS011;2391;47.212;7.542;2022-10-19T15:35:31;9.50;;;7.97;;
4754;SDS011;2391;47.212;7.542;2022-10-19T15:38:00;12.90;;;8.37;;
4754;SDS011;2391;47.212;7.542;2022-10-19T15:40:31;20.13;;;9.17;;
4754;SDS011;2391;47.212;7.542;2022-10-19T15:43:22;18.40;;;9.23;;
4754;SDS011;2391;47.212;7.542;2022-10-19T15:45:47;15.47;;;8.67;;
4754;SDS011;2391;47.212;7.542;2022-10-19T15:48:24;18.20;;;9.23;;
4754;SDS011;2391;47.212;7.542;2022-10-19T15:50:52;14.87;;;9.23;;
4754;SDS011;2391;47.212;7.542;2022-10-19T15:53:19;17.20;;;9.27;;
4754;SDS011;2391;47.212;7.542;2022-10-19T15:55:46;14.40;;;9.03;;
4754;SDS011;2391;47.212;7.542;2022-10-19T15:58:12;20.07;;;9.80;;
4754;SDS011;2391;47.212;7.542;2022-10-19T16:00:39;16.50;;;9.47;;
4754;SDS011;2391;47.212;7.542;2022-10-19T16:03:06;27.37;;;13.20;;
4754;SDS011;2391;47.212;7.542;2022-10-19T16:05:34;30.83;;;13.77;;
4754;SDS011;2391;47.212;7.542;2022-10-19T16:08:01;18.97;;;10.60;;
4754;SDS011;2391;47.212;7.542;2022-10-19T16:10:27;16.73;;;10.57;;
4754;SDS011;2391;47.212;7.542;2022-10-19T16:12:53;21.07;;;11.27;;
4754;SDS011;2391;47.212;7.542;2022-10-19T16:15:20;25.13;;;10.77;;
4754;SDS011;2391;47.212;7.542;2022-10-19T16:17:52;13.20;;;9.30;;
4754;SDS011;2391;47.212;7.542;2022-10-19T16:20:20;16.13;;;8.70;;
4754;SDS011;2391;47.212;7.542;2022-10-19T16:22:46;12.83;;;9.43;;
4754;SDS011;2391;47.212;7.542;2022-10-19T16:25:13;17.53;;;8.97;;
4754;SDS011;2391;47.212;7.542;2022-10-19T16:27:39;20.77;;;8.30;;
4754;SDS011;2391;47.212;7.542;2022-10-19T16:30:06;14.20;;;8.93;;
4754;SDS011;2391;47.212;7.542;2022-10-19T16:32:33;18.27;;;8.30;;
4754;SDS011;2391;47.212;7.542;2022-10-19T16:34:59;14.40;;;8.40;;
4754;SDS011;2391;47.212;7.542;2022-10-19T16:37:25;21.40;;;8.73;;
4754;SDS011;2391;47.212;7.542;2022-10-19T16:39:52;17.00;;;8.80;;
4754;SDS011;2391;47.212;7.542;2022-10-19T16:42:18;14.20;;;9.27;;
4754;SDS011;2391;47.212;7.542;2022-10-19T16:44:44;11.80;;;9.30;;
4754;SDS011;2391;47.212;7.542;2022-10-19T16:47:10;13.93;;;9.47;;
4754;SDS011;2391;47.212;7.542;2022-10-19T16:49:36;18.60;;;8.97;;
4754;SDS011;2391;47.212;7.542;2022-10-19T16:52:02;15.13;;;9.40;;
4754;SDS011;2391;47.212;7.542;2022-10-19T16:54:28;16.90;;;10.70;;
4754;SDS011;2391;47.212;7.542;2022-10-19T16:56:55;23.43;;;11.67;;
4754;SDS011;2391;47.212;7.542;2022-10-19T16:59:21;21.93;;;10.73;;
4754;SDS011;2391;47.212;7.542;2022-10-19T17:01:47;12.27;;;9.33;;
4754;SDS011;2391;47.212;7.542;2022-10-19T17:04:13;13.30;;;9.73;;
4754;SDS011;2391;47.212;7.542;2022-10-19T17:06:43;24.13;;;9.50;;
4754;SDS011;2391;47.212;7.542;2022-10-19T17:09:09;12.30;;;9.03;;
4754;SDS011;2391;47.212;7.542;2022-10-19T17:11:36;15.60;;;8.33;;
4754;SDS011;2391;47.212;7.542;2022-10-19T17:14:05;15.03;;;10.40;;
4754;SDS011;2391;47.212;7.542;2022-10-19T17:16:34;9.97;;;8.33;;
4754;SDS011;2391;47.212;7.542;2022-10-19T17:19:01;12.77;;;9.50;;
4754;SDS011;2391;47.212;7.542;2022-10-19T17:21:30;14.23;;;8.90;;
4754;SDS011;2391;47.212;7.542;2022-10-19T17:23:58;24.93;;;11.70;;
4754;SDS011;2391;47.212;7.542;2022-10-19T17:26:25;17.27;;;10.03;;
4754;SDS011;2391;47.212;7.542;2022-10-19T17:28:54;15.93;;;10.80;;
4754;SDS011;2391;47.212;7.542;2022-10-19T17:31:20;15.57;;;9.80;;
4754;SDS011;2391;47.212;7.542;2022-10-19T17:33:46;22.30;;;13.40;;
4754;SDS011;2391;47.212;7.542;2022-10-19T17:36:19;25.70;;;15.20;;
4754;SDS011;2391;47.212;7.542;2022-10-19T17:38:51;22.50;;;13.10;;
4754;SDS011;2391;47.212;7.542;2022-10-19T17:41:18;24.03;;;13.80;;
4754;SDS011;2391;47.212;7.542;2022-10-19T17:43:45;29.63;;;15.93;;
4754;SDS011;2391;47.212;7.542;2022-10-19T17:46:13;23.30;;;14.13;;
4754;SDS011;2391;47.212;7.542;2022-10-19T17:48:42;24.20;;;14.80;;
4754;SDS011;2391;47.212;7.542;2022-10-19T17:51:13;20.73;;;13.43;;
4754;SDS011;2391;47.212;7.542;2022-10-19T17:53:41;23.33;;;13.10;;